createdAt,value
2023-05-01T00:03:12.352Z,100446.69
2023-05-01T00:08:17.538Z,100447.25
2023-05-01T00:13:24.448Z,100445.09
2023-05-01T00:18:31.681Z,100445.44
2023-05-01T00:23:37.106Z,100445.09
2023-05-01T00:28:42.105Z,100448.13
2023-05-01T00:33:47.611Z,100448.59
2023-05-01T00:38:51.858Z,100448.06
2023-05-01T00:43:57.237Z,100442.34
2023-05-01T00:49:02.684Z,100474.41
2023-05-01T00:54:08.302Z,100445.50
2023-05-01T00:59:13.511Z,100442.25
2023-05-01T01:04:18.640Z,100460.34
2023-05-01T01:09:30.385Z,100452.94
2023-05-01T01:15:06.319Z,100447.56
2023-05-01T01:20:32.572Z,100462.53
2023-05-01T01:26:01.410Z,100450.38
2023-05-01T01:31:13.381Z,100440.00
2023-05-01T01:36:22.786Z,100451.00
2023-05-01T01:41:34.893Z,100446.84
2023-05-01T01:46:43.929Z,100444.25
2023-05-01T01:51:50.525Z,100447.72
2023-05-01T01:56:56.959Z,100435.41
2023-05-01T02:02:04.827Z,100456.50
2023-05-01T02:07:13.056Z,100440.91
2023-05-01T02:12:20.658Z,100451.75
2023-05-01T02:17:25.911Z,100447.91
2023-05-01T02:22:32.226Z,100450.06
2023-05-01T02:27:52.252Z,100439.66
2023-05-01T02:32:59.133Z,100443.59
2023-05-01T02:38:04.141Z,100440.41
2023-05-01T02:43:15.945Z,100433.00
2023-05-01T02:48:27.527Z,100452.09
2023-05-01T02:53:33.975Z,100446.66
2023-05-01T02:58:47.490Z,100447.56
2023-05-01T03:03:53.144Z,100444.69
2023-05-01T03:08:58.097Z,100434.78
2023-05-01T03:14:03.686Z,100426.13
2023-05-01T03:19:08.932Z,100420.91
2023-05-01T03:24:13.961Z,100416.91
2023-05-01T03:29:18.914Z,100418.81
2023-05-01T03:34:23.703Z,100375.41
2023-05-01T03:39:29.687Z,100391.78
2023-05-01T03:45:15.094Z,100389.88
2023-05-01T03:50:20.508Z,100392.78
2023-05-01T03:55:28.367Z,100385.97
2023-05-01T04:00:34.734Z,100380.78
2023-05-01T04:05:40.716Z,100383.13
2023-05-01T04:10:46.765Z,100354.53
2023-05-01T04:15:52.398Z,100338.47
2023-05-01T04:20:57.818Z,100317.88
2023-05-01T04:26:03.632Z,100304.81
2023-05-01T04:31:09.531Z,100299.59
2023-05-01T04:36:15.444Z,100298.94
2023-05-01T04:41:22.844Z,100280.25
2023-05-01T04:46:28.410Z,100270.09
2023-05-01T04:51:34.798Z,100263.00
2023-05-01T04:56:41.086Z,100276.88
2023-05-01T05:01:46.775Z,100245.16
2023-05-01T05:06:52.734Z,100242.28
2023-05-01T05:12:08.313Z,100236.97
2023-05-01T05:17:14.526Z,100246.47
2023-05-01T05:22:20.522Z,100222.81
2023-05-01T05:27:52.182Z,100205.66
2023-05-01T05:32:57.665Z,100187.97
2023-05-01T05:38:03.487Z,100174.81
2023-05-01T05:43:12.677Z,100156.41
2023-05-01T05:48:18.673Z,100153.72
2023-05-01T05:53:25.908Z,100148.38
2023-05-01T05:58:32.678Z,100150.28
2023-05-01T06:03:39.193Z,100120.66
2023-05-01T06:08:47.039Z,100125.38
2023-05-01T06:13:52.911Z,100121.72
2023-05-01T06:18:58.734Z,100137.72
2023-05-01T06:24:04.345Z,100116.44
2023-05-01T06:29:24.564Z,100111.94
2023-05-01T06:34:31.026Z,100089.00
2023-05-01T06:39:37.560Z,100091.19
2023-05-01T06:44:43.781Z,100079.63
2023-05-01T06:49:50.015Z,100070.16
2023-05-01T06:54:55.553Z,100080.22
2023-05-01T07:00:01.193Z,100052.97
2023-05-01T07:05:06.892Z,100055.16
2023-05-01T07:10:13.805Z,100050.31
2023-05-01T07:15:19.693Z,100051.94
2023-05-01T07:20:26.332Z,100045.97
2023-05-01T07:25:32.597Z,100046.16
2023-05-01T07:30:41.368Z,100057.53
2023-05-01T07:35:46.775Z,100066.25
2023-05-01T07:40:55.581Z,100061.91
2023-05-01T07:46:03.671Z,100075.03
2023-05-01T07:51:09.375Z,100071.19
2023-05-01T07:56:14.848Z,100050.25
2023-05-01T08:01:20.616Z,100044.22
2023-05-01T08:06:26.167Z,100054.78
2023-05-01T08:11:31.547Z,100053.72
2023-05-01T08:16:38.074Z,100052.91
2023-05-01T08:21:43.781Z,100053.97
2023-05-01T08:26:50.382Z,100038.03
2023-05-01T08:31:58.314Z,100023.97
2023-05-01T08:37:04.044Z,100011.00
2023-05-01T08:42:10.491Z,100011.25
2023-05-01T08:47:22.050Z,100009.97
2023-05-01T08:52:30.917Z,100001.06
2023-05-01T08:57:38.770Z,100002.50
2023-05-01T09:02:46.272Z,100009.25
2023-05-01T09:07:51.469Z,99980.84
2023-05-01T09:13:02.915Z,99978.06
2023-05-01T09:18:10.225Z,99982.75
2023-05-01T09:23:15.699Z,99975.38
2023-05-01T09:28:20.780Z,99980.94
2023-05-01T09:33:26.368Z,100010.53
2023-05-01T09:38:31.778Z,100025.00
2023-05-01T09:43:36.665Z,100030.50
2023-05-01T09:48:41.693Z,100021.50
2023-05-01T09:53:47.129Z,100015.44
2023-05-01T09:58:56.670Z,100021.22
2023-05-01T10:04:01.578Z,100020.78
2023-05-01T10:09:18.434Z,100022.53
2023-05-01T10:14:25.213Z,100017.84
2023-05-01T10:19:30.142Z,100018.97
2023-05-01T10:24:35.072Z,100020.66
2023-05-01T10:29:42.125Z,100045.00
2023-05-01T10:34:56.921Z,100058.22
2023-05-01T10:40:02.118Z,100061.06
2023-05-01T10:45:42.465Z,100064.75
2023-05-01T10:51:16.112Z,100085.56
2023-05-01T10:56:28.259Z,100096.28
2023-05-01T11:01:41.135Z,100109.28
2023-05-01T11:07:12.466Z,100109.88
2023-05-01T11:12:38.274Z,100101.63
2023-05-01T11:17:43.532Z,100117.66
2023-05-01T11:22:48.752Z,100133.69
2023-05-01T11:27:55.753Z,100118.28
2023-05-01T11:33:00.829Z,100115.75
2023-05-01T11:38:05.868Z,100105.94
2023-05-01T11:43:11.205Z,100106.31
2023-05-01T11:48:19.397Z,100128.41
2023-05-01T11:53:25.514Z,100126.69
2023-05-01T11:58:35.431Z,100127.56
2023-05-01T12:03:44.969Z,100128.53
2023-05-01T12:08:52.868Z,100142.31
2023-05-01T12:13:58.152Z,100159.84
2023-05-01T12:19:05.153Z,100162.97
2023-05-01T12:24:17.484Z,100158.91
2023-05-01T12:29:22.641Z,100157.38
2023-05-01T12:34:36.103Z,100154.09
2023-05-01T12:39:47.869Z,100151.53
2023-05-01T12:45:03.972Z,100157.97
2023-05-01T12:50:10.160Z,100132.84
2023-05-01T12:55:15.610Z,100140.19
2023-05-01T13:00:22.151Z,100154.66
2023-05-01T13:05:28.867Z,100166.09
2023-05-01T13:10:35.452Z,100187.19
2023-05-01T13:15:41.302Z,100169.69
2023-05-01T13:20:46.483Z,100158.63
2023-05-01T13:26:01.605Z,100152.03
2023-05-01T13:31:16.435Z,100151.88
2023-05-01T13:36:26.115Z,100151.75
2023-05-01T13:41:33.038Z,100159.69
2023-05-01T13:46:38.851Z,100159.56
2023-05-01T13:51:52.850Z,100152.19
2023-05-01T13:57:00.093Z,100172.69
2023-05-01T14:02:26.621Z,100164.06
2023-05-01T14:07:32.432Z,100152.97
2023-05-01T14:12:37.721Z,100157.13
2023-05-01T14:17:43.089Z,100157.38
2023-05-01T14:22:53.195Z,100158.88
2023-05-01T14:28:01.162Z,100170.47
2023-05-01T14:33:12.703Z,100174.66
2023-05-01T14:38:21.465Z,100182.56
2023-05-01T14:43:32.298Z,100178.72
2023-05-01T14:48:38.647Z,100177.97
2023-05-01T14:53:47.413Z,100177.38
2023-05-01T14:58:53.975Z,100163.63
2023-05-01T15:04:03.584Z,100166.75
2023-05-01T15:09:09.444Z,100169.63
2023-05-01T15:14:16.987Z,100178.97
2023-05-01T15:24:42.084Z,100213.13
2023-05-01T15:29:47.443Z,100190.31
2023-05-01T15:34:57.815Z,100176.09
2023-05-01T15:40:03.385Z,100184.56
2023-05-01T15:45:10.636Z,100175.09
2023-05-01T15:50:18.081Z,100172.63
2023-05-01T15:55:24.612Z,100161.56
2023-05-01T16:00:30.692Z,100165.28
2023-05-01T16:05:37.301Z,100163.88
2023-05-01T16:10:45.336Z,100153.41
2023-05-01T16:15:51.044Z,100148.47
2023-05-01T16:20:56.956Z,100144.38
2023-05-01T16:26:03.474Z,100125.25
2023-05-01T16:31:23.369Z,100112.34
2023-05-01T16:36:31.245Z,100107.41
2023-05-01T16:41:46.671Z,100104.13
2023-05-01T16:46:57.092Z,100103.09
2023-05-01T16:52:03.999Z,100119.97
2023-05-01T16:57:09.710Z,100101.22
2023-05-01T17:02:16.237Z,100095.06
2023-05-01T17:07:23.059Z,100081.66
2023-05-01T17:12:29.187Z,100072.81
2023-05-01T17:17:34.521Z,100082.72
2023-05-01T17:22:39.491Z,100092.59
2023-05-01T17:27:44.920Z,100102.50
2023-05-01T17:32:50.354Z,100116.09
2023-05-01T17:37:57.062Z,100115.28
2023-05-01T17:43:02.780Z,100115.28
2023-05-01T17:48:08.248Z,100097.56
2023-05-01T17:53:13.350Z,100078.25
2023-05-01T17:58:18.875Z,100091.03
2023-05-01T18:03:24.075Z,100082.25
2023-05-01T18:08:29.365Z,100074.66
2023-05-01T18:13:39.505Z,100075.09
2023-05-01T18:18:44.836Z,100065.69
2023-05-01T18:23:50.430Z,100065.31
2023-05-01T18:28:55.741Z,100069.00
2023-05-01T18:34:01.008Z,100063.28
2023-05-01T18:39:06.713Z,100036.16
2023-05-01T18:44:11.695Z,100049.75
2023-05-01T18:49:16.262Z,100028.81
2023-05-01T18:54:21.482Z,100011.16
2023-05-01T18:59:28.384Z,99993.16
2023-05-01T19:04:49.389Z,100017.34
2023-05-01T19:10:02.252Z,100020.53
2023-05-01T19:15:08.415Z,100024.69
2023-05-01T19:20:14.104Z,100007.91
2023-05-01T19:25:20.706Z,100002.38
2023-05-01T19:30:26.335Z,100000.00
2023-05-01T19:35:32.102Z,100011.56
2023-05-01T19:40:38.429Z,100004.00
2023-05-01T19:45:45.030Z,100011.84
2023-05-01T19:50:53.065Z,99993.38
2023-05-01T19:55:58.794Z,100040.28
2023-05-01T20:01:06.383Z,100011.09
2023-05-01T20:06:11.464Z,100018.06
2023-05-01T20:11:17.019Z,100012.34
2023-05-01T20:16:23.038Z,100021.00
2023-05-01T20:21:28.634Z,100024.28
2023-05-01T20:26:34.235Z,100020.63
2023-05-01T20:31:40.375Z,100034.41
2023-05-01T20:36:45.817Z,100031.34
2023-05-01T20:41:51.427Z,100043.69
2023-05-01T20:46:56.714Z,100045.97
2023-05-01T20:52:02.200Z,100062.22
2023-05-01T20:57:07.694Z,100054.59
2023-05-01T21:02:13.264Z,100055.22
2023-05-01T21:07:18.798Z,100053.44
2023-05-01T21:12:24.733Z,100049.56
2023-05-01T21:17:36.100Z,100059.59
2023-05-01T21:22:43.523Z,100052.63
2023-05-01T21:27:49.630Z,100062.72
2023-05-01T21:32:54.892Z,100059.00
2023-05-01T21:38:00.828Z,100062.50
2023-05-01T21:43:08.181Z,100056.94
2023-05-01T21:48:20.604Z,100072.13
2023-05-01T21:53:26.564Z,100071.13
2023-05-01T21:58:33.622Z,100072.94
2023-05-01T22:03:42.742Z,100076.66
2023-05-01T22:08:48.684Z,100115.63
2023-05-01T22:13:54.501Z,100128.16
2023-05-01T22:19:00.988Z,100096.09
2023-05-01T22:24:07.897Z,100104.28
2023-05-01T22:29:13.416Z,100105.31
2023-05-01T22:34:19.083Z,100119.44
2023-05-01T22:39:26.409Z,100114.91
2023-05-01T22:44:34.790Z,100128.06
2023-05-01T22:49:40.242Z,100136.41
2023-05-01T22:54:45.296Z,100165.56
2023-05-01T22:59:51.085Z,100139.19
2023-05-01T23:04:56.835Z,100136.28
2023-05-01T23:10:03.381Z,100172.22
2023-05-01T23:15:13.465Z,100146.41
2023-05-01T23:20:26.414Z,100154.16
2023-05-01T23:25:31.816Z,100156.59
2023-05-01T23:30:37.492Z,100165.53
2023-05-01T23:35:42.976Z,100176.63
2023-05-01T23:40:48.627Z,100184.75
2023-05-01T23:45:54.516Z,100192.88
2023-05-01T23:51:00.231Z,100202.69
2023-05-01T23:56:05.605Z,100193.31
